Arboles, Colorado
Current Conditions -  °F | °C
As of 7:53 PM on Friday 31 Oct 2014 (Local Time) from KDRO Reporting Station
Overcast Overcast  
Wind Chill: 57°   Ceiling: 8000
Heat Index: 57°   Visibility: 10mi
Dew Point: 30°   Wind: 13mph
Humidity: 36%   Direction: 160°SSE
Pressure: 30.22"   Gusts: 22mph
Location:  37.03°N, 107.42°W
Report Text: KDRO 010153Z AUTO 16011G19KT 10SM OVC080 14/M01 A3022 RMK AO2 SLP213 T01391011
Loading
Personal Weather Stations






























Interactive Weather Map
Tropical Storm Tracking
New forecast layout! Learn more

10-Day Weather Forecast

Advertisements
Track Severe Weather on mobile